sensor_id;sensor_type;location;lat;lon;timestamp;temperature;humidity
38209;DHT22;24016;52.102;11.584;2022-08-19T00:00:37;19.20;99.90
38209;DHT22;24016;52.102;11.584;2022-08-19T00:03:06;19.20;99.90
38209;DHT22;24016;52.102;11.584;2022-08-19T00:05:33;19.30;99.90
38209;DHT22;24016;52.102;11.584;2022-08-19T00:07:59;19.30;99.90
38209;DHT22;24016;52.102;11.584;2022-08-19T00:10:28;19.30;99.90
38209;DHT22;24016;52.102;11.584;2022-08-19T00:12:53;19.30;99.90
38209;DHT22;24016;52.102;11.584;2022-08-19T00:15:21;19.30;99.90
38209;DHT22;24016;52.102;11.584;2022-08-19T00:17:47;19.30;99.90
38209;DHT22;24016;52.102;11.584;2022-08-19T00:20:15;19.30;99.90
38209;DHT22;24016;52.102;11.584;2022-08-19T00:22:43;19.20;99.90
38209;DHT22;24016;52.102;11.584;2022-08-19T00:25:10;19.20;99.90
38209;DHT22;24016;52.102;11.584;2022-08-19T00:27:36;19.10;99.90
38209;DHT22;24016;52.102;11.584;2022-08-19T00:30:04;19.00;99.90
38209;DHT22;24016;52.102;11.584;2022-08-19T00:32:30;19.00;99.90
38209;DHT22;24016;52.102;11.584;2022-08-19T00:34:55;19.00;99.90
38209;DHT22;24016;52.102;11.584;2022-08-19T00:37:25;18.90;99.90
38209;DHT22;24016;52.102;11.584;2022-08-19T00:39:51;18.80;99.90
38209;DHT22;24016;52.102;11.584;2022-08-19T00:42:18;18.80;99.90
38209;DHT22;24016;52.102;11.584;2022-08-19T00:44:44;18.70;99.90
38209;DHT22;24016;52.102;11.584;2022-08-19T00:47:10;18.70;99.90
38209;DHT22;24016;52.102;11.584;2022-08-19T00:49:57;18.70;99.90
38209;DHT22;24016;52.102;11.584;2022-08-19T00:52:27;18.60;99.90
38209;DHT22;24016;52.102;11.584;2022-08-19T00:54:55;18.60;99.90
38209;DHT22;24016;52.102;11.584;2022-08-19T00:57:31;18.60;99.90
38209;DHT22;24016;52.102;11.584;2022-08-19T00:59:59;18.60;99.90
38209;DHT22;24016;52.102;11.584;2022-08-19T01:02:25;18.60;99.90
38209;DHT22;24016;52.102;11.584;2022-08-19T01:04:52;18.60;99.90
38209;DHT22;24016;52.102;11.584;2022-08-19T01:07:17;18.60;99.90
38209;DHT22;24016;52.102;11.584;2022-08-19T01:09:46;18.60;99.90
38209;DHT22;24016;52.102;11.584;2022-08-19T01:12:13;18.50;99.90
38209;DHT22;24016;52.102;11.584;2022-08-19T01:14:39;18.50;99.90
38209;DHT22;24016;52.102;11.584;2022-08-19T01:17:10;18.50;99.90
38209;DHT22;24016;52.102;11.584;2022-08-19T01:19:39;18.40;99.90
38209;DHT22;24016;52.102;11.584;2022-08-19T01:22:16;18.40;99.90
38209;DHT22;24016;52.102;11.584;2022-08-19T01:24:43;18.40;99.90
38209;DHT22;24016;52.102;11.584;2022-08-19T01:27:10;18.50;99.90
38209;DHT22;24016;52.102;11.584;2022-08-19T01:29:39;18.50;99.90
38209;DHT22;24016;52.102;11.584;2022-08-19T01:34:41;18.50;99.90
38209;DHT22;24016;52.102;11.584;2022-08-19T01:37:11;18.40;99.90
38209;DHT22;24016;52.102;11.584;2022-08-19T01:39:38;18.40;99.90
38209;DHT22;24016;52.102;11.584;2022-08-19T01:42:05;18.40;99.90
38209;DHT22;24016;52.102;11.584;2022-08-19T01:44:32;18.40;99.90
38209;DHT22;24016;52.102;11.584;2022-08-19T01:46:58;18.40;99.90
38209;DHT22;24016;52.102;11.584;2022-08-19T01:49:25;18.40;99.90
38209;DHT22;24016;52.102;11.584;2022-08-19T01:51:52;18.40;99.90
38209;DHT22;24016;52.102;11.584;2022-08-19T01:54:19;18.40;99.90
38209;DHT22;24016;52.102;11.584;2022-08-19T01:56:46;18.40;99.90
38209;DHT22;24016;52.102;11.584;2022-08-19T01:59:14;18.40;99.90
38209;DHT22;24016;52.102;11.584;2022-08-19T02:01:41;18.40;99.90
38209;DHT22;24016;52.102;11.584;2022-08-19T02:04:07;18.40;99.90
38209;DHT22;24016;52.102;11.584;2022-08-19T02:06:33;18.40;99.90
38209;DHT22;24016;52.102;11.584;2022-08-19T02:08:58;18.40;99.90
38209;DHT22;24016;52.102;11.584;2022-08-19T02:11:27;18.30;99.90
38209;DHT22;24016;52.102;11.584;2022-08-19T02:13:54;18.40;99.90
38209;DHT22;24016;52.102;11.584;2022-08-19T02:16:20;18.40;99.90
38209;DHT22;24016;52.102;11.584;2022-08-19T02:18:47;18.30;99.90
38209;DHT22;24016;52.102;11.584;2022-08-19T02:21:17;18.40;99.90
38209;DHT22;24016;52.102;11.584;2022-08-19T02:23:43;18.30;99.90
38209;DHT22;24016;52.102;11.584;2022-08-19T02:26:09;18.30;99.90
38209;DHT22;24016;52.102;11.584;2022-08-19T02:28:35;18.30;99.90
38209;DHT22;24016;52.102;11.584;2022-08-19T02:31:02;18.30;99.90
38209;DHT22;24016;52.102;11.584;2022-08-19T02:33:28;18.30;99.90
38209;DHT22;24016;52.102;11.584;2022-08-19T02:35:54;18.30;99.90
38209;DHT22;24016;52.102;11.584;2022-08-19T02:38:20;18.30;99.90
38209;DHT22;24016;52.102;11.584;2022-08-19T02:40:55;18.30;99.90
38209;DHT22;24016;52.102;11.584;2022-08-19T02:43:22;18.20;99.90
38209;DHT22;24016;52.102;11.584;2022-08-19T02:45:48;18.20;99.90
38209;DHT22;24016;52.102;11.584;2022-08-19T02:48:19;18.20;99.90
38209;DHT22;24016;52.102;11.584;2022-08-19T02:50:46;18.20;99.90
38209;DHT22;24016;52.102;11.584;2022-08-19T02:53:12;18.20;99.90
38209;DHT22;24016;52.102;11.584;2022-08-19T02:55:43;18.20;99.90
38209;DHT22;24016;52.102;11.584;2022-08-19T02:58:10;18.20;99.90
38209;DHT22;24016;52.102;11.584;2022-08-19T03:00:40;18.20;99.90
38209;DHT22;24016;52.102;11.584;2022-08-19T03:03:07;18.10;99.90
38209;DHT22;24016;52.102;11.584;2022-08-19T03:05:33;18.10;99.90
38209;DHT22;24016;52.102;11.584;2022-08-19T03:07:59;18.10;99.90
38209;DHT22;24016;52.102;11.584;2022-08-19T03:10:25;18.00;99.90
38209;DHT22;24016;52.102;11.584;2022-08-19T03:12:50;18.10;99.90
38209;DHT22;24016;52.102;11.584;2022-08-19T03:15:15;18.00;99.90
38209;DHT22;24016;52.102;11.584;2022-08-19T03:17:41;18.00;99.90
38209;DHT22;24016;52.102;11.584;2022-08-19T03:20:07;18.00;99.90
38209;DHT22;24016;52.102;11.584;2022-08-19T03:22:33;18.00;99.90
38209;DHT22;24016;52.102;11.584;2022-08-19T03:24:59;18.00;99.90
38209;DHT22;24016;52.102;11.584;2022-08-19T03:27:24;17.90;99.90
38209;DHT22;24016;52.102;11.584;2022-08-19T03:29:50;17.90;99.90
38209;DHT22;24016;52.102;11.584;2022-08-19T03:32:16;17.90;99.90
38209;DHT22;24016;52.102;11.584;2022-08-19T03:34:42;17.90;99.90
38209;DHT22;24016;52.102;11.584;2022-08-19T03:37:10;17.90;99.90
38209;DHT22;24016;52.102;11.584;2022-08-19T03:39:38;17.90;99.90
38209;DHT22;24016;52.102;11.584;2022-08-19T03:42:04;17.90;99.90
38209;DHT22;24016;52.102;11.584;2022-08-19T03:44:31;17.90;99.90
38209;DHT22;24016;52.102;11.584;2022-08-19T03:46:58;17.90;99.90
38209;DHT22;24016;52.102;11.584;2022-08-19T03:49:26;17.90;99.90
38209;DHT22;24016;52.102;11.584;2022-08-19T03:51:55;17.90;99.90
38209;DHT22;24016;52.102;11.584;2022-08-19T03:54:23;17.90;99.90
38209;DHT22;24016;52.102;11.584;2022-08-19T03:56:50;17.90;99.90
38209;DHT22;24016;52.102;11.584;2022-08-19T03:59:21;17.90;99.90
38209;DHT22;24016;52.102;11.584;2022-08-19T04:01:47;17.90;99.90
38209;DHT22;24016;52.102;11.584;2022-08-19T04:04:13;17.90;99.90
38209;DHT22;24016;52.102;11.584;2022-08-19T04:06:39;17.90;99.90
38209;DHT22;24016;52.102;11.584;2022-08-19T04:09:07;17.90;99.90
38209;DHT22;24016;52.102;11.584;2022-08-19T04:11:48;18.00;99.90
38209;DHT22;24016;52.102;11.584;2022-08-19T04:14:19;17.90;99.90
38209;DHT22;24016;52.102;11.584;2022-08-19T04:16:48;17.90;99.90
38209;DHT22;24016;52.102;11.584;2022-08-19T04:19:15;17.80;99.90
38209;DHT22;24016;52.102;11.584;2022-08-19T04:21:44;17.80;99.90
38209;DHT22;24016;52.102;11.584;2022-08-19T04:24:11;17.80;99.90
38209;DHT22;24016;52.102;11.584;2022-08-19T04:26:36;17.80;99.90
38209;DHT22;24016;52.102;11.584;2022-08-19T04:29:09;17.80;99.90
38209;DHT22;24016;52.102;11.584;2022-08-19T04:31:35;17.80;99.90
38209;DHT22;24016;52.102;11.584;2022-08-19T04:34:04;17.80;99.90
38209;DHT22;24016;52.102;11.584;2022-08-19T04:36:34;17.80;99.90
38209;DHT22;24016;52.102;11.584;2022-08-19T04:39:05;17.80;99.90
38209;DHT22;24016;52.102;11.584;2022-08-19T04:41:33;17.80;99.90
38209;DHT22;24016;52.102;11.584;2022-08-19T04:44:17;17.80;99.90
38209;DHT22;24016;52.102;11.584;2022-08-19T04:46:47;17.80;99.90
38209;DHT22;24016;52.102;11.584;2022-08-19T04:49:14;17.80;99.90
38209;DHT22;24016;52.102;11.584;2022-08-19T04:51:41;17.80;99.90
38209;DHT22;24016;52.102;11.584;2022-08-19T04:54:08;17.90;99.90
38209;DHT22;24016;52.102;11.584;2022-08-19T04:56:34;17.80;99.90
38209;DHT22;24016;52.102;11.584;2022-08-19T04:59:00;17.80;99.90
38209;DHT22;24016;52.102;11.584;2022-08-19T05:01:29;17.80;99.90
38209;DHT22;24016;52.102;11.584;2022-08-19T05:03:56;17.80;99.90
38209;DHT22;24016;52.102;11.584;2022-08-19T05:06:22;17.90;99.90
38209;DHT22;24016;52.102;11.584;2022-08-19T05:08:48;17.80;99.90
38209;DHT22;24016;52.102;11.584;2022-08-19T05:11:41;17.80;99.90
38209;DHT22;24016;52.102;11.584;2022-08-19T05:14:08;17.80;99.90
38209;DHT22;24016;52.102;11.584;2022-08-19T05:16:34;17.90;99.90
38209;DHT22;24016;52.102;11.584;2022-08-19T05:18:59;17.90;99.90
38209;DHT22;24016;52.102;11.584;2022-08-19T05:21:44;17.90;99.90
38209;DHT22;24016;52.102;11.584;2022-08-19T05:24:29;17.90;99.90
38209;DHT22;24016;52.102;11.584;2022-08-19T05:26:56;18.00;99.90
38209;DHT22;24016;52.102;11.584;2022-08-19T05:29:24;18.00;99.90
38209;DHT22;24016;52.102;11.584;2022-08-19T05:31:51;18.00;99.90
38209;DHT22;24016;52.102;11.584;2022-08-19T05:34:18;18.00;99.90
38209;DHT22;24016;52.102;11.584;2022-08-19T05:36:47;18.00;99.90
38209;DHT22;24016;52.102;11.584;2022-08-19T05:39:17;18.00;99.90
38209;DHT22;24016;52.102;11.584;2022-08-19T05:41:49;18.00;99.90
38209;DHT22;24016;52.102;11.584;2022-08-19T05:44:17;18.00;99.90
38209;DHT22;24016;52.102;11.584;2022-08-19T05:46:44;18.00;99.90
38209;DHT22;24016;52.102;11.584;2022-08-19T05:49:13;18.00;99.90
38209;DHT22;24016;52.102;11.584;2022-08-19T05:51:38;18.00;99.90
38209;DHT22;24016;52.102;11.584;2022-08-19T05:54:05;18.00;99.90
38209;DHT22;24016;52.102;11.584;2022-08-19T05:56:32;18.00;99.90
38209;DHT22;24016;52.102;11.584;2022-08-19T05:59:02;18.00;99.90
38209;DHT22;24016;52.102;11.584;2022-08-19T06:01:28;18.00;99.90
38209;DHT22;24016;52.102;11.584;2022-08-19T06:03:53;18.00;99.90
38209;DHT22;24016;52.102;11.584;2022-08-19T06:06:19;18.00;99.90
38209;DHT22;24016;52.102;11.584;2022-08-19T06:08:45;18.00;99.90
38209;DHT22;24016;52.102;11.584;2022-08-19T06:11:39;18.00;99.90
38209;DHT22;24016;52.102;11.584;2022-08-19T06:14:09;18.00;99.90
38209;DHT22;24016;52.102;11.584;2022-08-19T06:16:36;18.10;99.90
38209;DHT22;24016;52.102;11.584;2022-08-19T06:19:06;18.10;99.90
38209;DHT22;24016;52.102;11.584;2022-08-19T06:21:33;18.10;99.90
38209;DHT22;24016;52.102;11.584;2022-08-19T06:23:59;18.20;99.90
38209;DHT22;24016;52.102;11.584;2022-08-19T06:26:26;18.10;99.90
38209;DHT22;24016;52.102;11.584;2022-08-19T06:28:52;18.10;99.90
38209;DHT22;24016;52.102;11.584;2022-08-19T06:31:20;18.10;99.90
38209;DHT22;24016;52.102;11.584;2022-08-19T06:33:47;18.20;99.90
38209;DHT22;24016;52.102;11.584;2022-08-19T06:36:22;18.20;99.90
38209;DHT22;24016;52.102;11.584;2022-08-19T06:38:52;18.20;99.90
38209;DHT22;24016;52.102;11.584;2022-08-19T06:41:18;18.30;99.90
38209;DHT22;24016;52.102;11.584;2022-08-19T06:43:43;18.20;99.90
38209;DHT22;24016;52.102;11.584;2022-08-19T06:46:11;18.20;99.90
38209;DHT22;24016;52.102;11.584;2022-08-19T06:48:37;18.10;99.90
38209;DHT22;24016;52.102;11.584;2022-08-19T06:51:03;18.10;99.90
38209;DHT22;24016;52.102;11.584;2022-08-19T06:53:31;18.10;99.90
38209;DHT22;24016;52.102;11.584;2022-08-19T06:55:57;18.10;99.90
38209;DHT22;24016;52.102;11.584;2022-08-19T06:58:30;18.10;99.90
38209;DHT22;24016;52.102;11.584;2022-08-19T07:01:02;18.20;99.90
38209;DHT22;24016;52.102;11.584;2022-08-19T07:03:33;18.10;99.90
38209;DHT22;24016;52.102;11.584;2022-08-19T07:06:13;18.00;99.90
38209;DHT22;24016;52.102;11.584;2022-08-19T07:08:41;18.00;99.90
38209;DHT22;24016;52.102;11.584;2022-08-19T07:11:10;17.90;99.90
38209;DHT22;24016;52.102;11.584;2022-08-19T07:13:37;17.80;99.90
38209;DHT22;24016;52.102;11.584;2022-08-19T07:16:07;17.80;99.90
38209;DHT22;24016;52.102;11.584;2022-08-19T07:18:33;17.80;99.90
38209;DHT22;24016;52.102;11.584;2022-08-19T07:21:07;17.80;99.90
38209;DHT22;24016;52.102;11.584;2022-08-19T07:23:34;17.80;99.90
38209;DHT22;24016;52.102;11.584;2022-08-19T07:26:15;17.80;99.90
38209;DHT22;24016;52.102;11.584;2022-08-19T07:28:42;17.70;99.90
38209;DHT22;24016;52.102;11.584;2022-08-19T07:31:15;17.70;99.90
38209;DHT22;24016;52.102;11.584;2022-08-19T07:33:44;17.80;99.90
38209;DHT22;24016;52.102;11.584;2022-08-19T07:36:12;17.80;99.90
38209;DHT22;24016;52.102;11.584;2022-08-19T07:38:40;17.70;99.90
38209;DHT22;24016;52.102;11.584;2022-08-19T07:41:07;17.80;99.90
38209;DHT22;24016;52.102;11.584;2022-08-19T07:43:32;17.70;99.90
38209;DHT22;24016;52.102;11.584;2022-08-19T07:45:58;17.70;99.90
38209;DHT22;24016;52.102;11.584;2022-08-19T07:48:27;17.70;99.90
38209;DHT22;24016;52.102;11.584;2022-08-19T07:50:59;17.80;99.90
38209;DHT22;24016;52.102;11.584;2022-08-19T07:53:28;17.80;99.90
38209;DHT22;24016;52.102;11.584;2022-08-19T07:55:54;17.80;99.90
38209;DHT22;24016;52.102;11.584;2022-08-19T07:58:22;17.90;99.90
38209;DHT22;24016;52.102;11.584;2022-08-19T08:00:49;17.90;99.90
38209;DHT22;24016;52.102;11.584;2022-08-19T08:03:18;18.00;99.90
38209;DHT22;24016;52.102;11.584;2022-08-19T08:05:44;18.00;99.90
38209;DHT22;24016;52.102;11.584;2022-08-19T08:08:30;18.00;99.90
38209;DHT22;24016;52.102;11.584;2022-08-19T08:11:16;18.00;99.90
38209;DHT22;24016;52.102;11.584;2022-08-19T08:13:43;18.00;99.90
38209;DHT22;24016;52.102;11.584;2022-08-19T08:16:08;18.10;99.90
38209;DHT22;24016;52.102;11.584;2022-08-19T08:18:34;18.00;99.90
38209;DHT22;24016;52.102;11.584;2022-08-19T08:21:07;18.00;99.90
38209;DHT22;24016;52.102;11.584;2022-08-19T08:23:33;17.90;99.90
38209;DHT22;24016;52.102;11.584;2022-08-19T08:25:59;17.90;99.90
38209;DHT22;24016;52.102;11.584;2022-08-19T08:28:27;17.80;99.90
38209;DHT22;24016;52.102;11.584;2022-08-19T08:30:55;17.80;99.90
38209;DHT22;24016;52.102;11.584;2022-08-19T08:33:22;17.80;99.90
38209;DHT22;24016;52.102;11.584;2022-08-19T08:35:49;17.80;99.90
38209;DHT22;24016;52.102;11.584;2022-08-19T08:38:15;17.80;99.90
38209;DHT22;24016;52.102;11.584;2022-08-19T08:40:48;17.80;99.90
38209;DHT22;24016;52.102;11.584;2022-08-19T08:43:31;17.80;99.90
38209;DHT22;24016;52.102;11.584;2022-08-19T08:46:12;17.80;99.90
38209;DHT22;24016;52.102;11.584;2022-08-19T08:48:57;17.80;99.90
38209;DHT22;24016;52.102;11.584;2022-08-19T08:51:37;17.80;99.90
38209;DHT22;24016;52.102;11.584;2022-08-19T08:54:06;17.80;99.90
38209;DHT22;24016;52.102;11.584;2022-08-19T08:56:32;17.90;99.90
38209;DHT22;24016;52.102;11.584;2022-08-19T08:59:05;17.80;99.90
38209;DHT22;24016;52.102;11.584;2022-08-19T09:01:34;17.80;99.90
38209;DHT22;24016;52.102;11.584;2022-08-19T09:04:04;17.80;99.90
38209;DHT22;24016;52.102;11.584;2022-08-19T09:06:37;17.80;99.90
38209;DHT22;24016;52.102;11.584;2022-08-19T09:09:10;17.80;99.90
38209;DHT22;24016;52.102;11.584;2022-08-19T09:11:57;17.80;99.90
38209;DHT22;24016;52.102;11.584;2022-08-19T09:14:50;17.80;99.90
38209;DHT22;24016;52.102;11.584;2022-08-19T09:17:18;17.80;99.90
38209;DHT22;24016;52.102;11.584;2022-08-19T09:19:56;17.90;99.90
38209;DHT22;24016;52.102;11.584;2022-08-19T09:22:22;17.90;99.90
38209;DHT22;24016;52.102;11.584;2022-08-19T09:24:50;18.00;99.90
38209;DHT22;24016;52.102;11.584;2022-08-19T09:27:19;18.00;99.90
38209;DHT22;24016;52.102;11.584;2022-08-19T09:29:46;18.10;99.90
38209;DHT22;24016;52.102;11.584;2022-08-19T09:32:13;18.10;99.90
38209;DHT22;24016;52.102;11.584;2022-08-19T09:34:39;18.00;99.90
38209;DHT22;24016;52.102;11.584;2022-08-19T09:37:05;18.00;99.90
38209;DHT22;24016;52.102;11.584;2022-08-19T09:39:31;18.00;99.90
38209;DHT22;24016;52.102;11.584;2022-08-19T09:41:57;18.10;99.90
38209;DHT22;24016;52.102;11.584;2022-08-19T09:44:22;18.20;99.90
38209;DHT22;24016;52.102;11.584;2022-08-19T09:46:48;18.20;99.90
38209;DHT22;24016;52.102;11.584;2022-08-19T09:49:16;18.40;99.90
38209;DHT22;24016;52.102;11.584;2022-08-19T09:51:50;18.40;99.90
38209;DHT22;24016;52.102;11.584;2022-08-19T09:54:16;18.40;99.90
38209;DHT22;24016;52.102;11.584;2022-08-19T09:56:41;18.40;99.90
38209;DHT22;24016;52.102;11.584;2022-08-19T09:59:08;18.40;99.90
38209;DHT22;24016;52.102;11.584;2022-08-19T10:01:34;18.40;99.90
38209;DHT22;24016;52.102;11.584;2022-08-19T10:04:01;18.30;99.90
38209;DHT22;24016;52.102;11.584;2022-08-19T10:06:29;18.40;99.90
38209;DHT22;24016;52.102;11.584;2022-08-19T10:08:59;18.50;99.90
38209;DHT22;24016;52.102;11.584;2022-08-19T10:11:25;18.50;99.90
38209;DHT22;24016;52.102;11.584;2022-08-19T10:13:52;18.50;99.90
38209;DHT22;24016;52.102;11.584;2022-08-19T10:16:22;18.40;99.90
38209;DHT22;24016;52.102;11.584;2022-08-19T10:18:49;18.60;99.90
38209;DHT22;24016;52.102;11.584;2022-08-19T10:21:21;18.50;99.90
38209;DHT22;24016;52.102;11.584;2022-08-19T10:23:49;18.70;99.90
38209;DHT22;24016;52.102;11.584;2022-08-19T10:26:21;18.80;99.90
38209;DHT22;24016;52.102;11.584;2022-08-19T10:28:47;19.00;99.90
38209;DHT22;24016;52.102;11.584;2022-08-19T10:31:16;19.10;99.90
38209;DHT22;24016;52.102;11.584;2022-08-19T10:33:43;19.20;99.90
38209;DHT22;24016;52.102;11.584;2022-08-19T10:36:13;19.20;99.90
38209;DHT22;24016;52.102;11.584;2022-08-19T10:38:44;19.10;99.90
38209;DHT22;24016;52.102;11.584;2022-08-19T10:41:16;19.20;99.90
38209;DHT22;24016;52.102;11.584;2022-08-19T10:43:42;19.50;99.90
38209;DHT22;24016;52.102;11.584;2022-08-19T10:46:12;19.90;99.90
38209;DHT22;24016;52.102;11.584;2022-08-19T10:48:37;20.50;99.90
38209;DHT22;24016;52.102;11.584;2022-08-19T10:51:04;21.10;99.90
38209;DHT22;24016;52.102;11.584;2022-08-19T10:53:48;21.10;99.90
38209;DHT22;24016;52.102;11.584;2022-08-19T10:56:14;20.70;99.90
38209;DHT22;24016;52.102;11.584;2022-08-19T10:58:58;20.40;99.90
38209;DHT22;24016;52.102;11.584;2022-08-19T11:01:26;20.30;99.90
38209;DHT22;24016;52.102;11.584;2022-08-19T11:03:52;20.40;99.90
38209;DHT22;24016;52.102;11.584;2022-08-19T11:06:18;20.40;99.90
38209;DHT22;24016;52.102;11.584;2022-08-19T11:08:45;20.40;99.90
38209;DHT22;24016;52.102;11.584;2022-08-19T11:11:11;20.40;99.90
38209;DHT22;24016;52.102;11.584;2022-08-19T11:13:39;20.50;99.90
38209;DHT22;24016;52.102;11.584;2022-08-19T11:16:07;20.60;99.90
38209;DHT22;24016;52.102;11.584;2022-08-19T11:18:54;20.50;99.90
38209;DHT22;24016;52.102;11.584;2022-08-19T11:21:26;20.90;99.90
38209;DHT22;24016;52.102;11.584;2022-08-19T11:23:55;21.10;99.90
38209;DHT22;24016;52.102;11.584;2022-08-19T11:26:21;21.20;99.90
38209;DHT22;24016;52.102;11.584;2022-08-19T11:28:47;21.40;99.90
38209;DHT22;24016;52.102;11.584;2022-08-19T11:31:18;21.10;99.90
38209;DHT22;24016;52.102;11.584;2022-08-19T11:33:44;21.50;99.90
38209;DHT22;24016;52.102;11.584;2022-08-19T11:36:12;21.50;99.90
38209;DHT22;24016;52.102;11.584;2022-08-19T11:38:38;21.60;99.90
38209;DHT22;24016;52.102;11.584;2022-08-19T11:41:06;22.00;99.90
38209;DHT22;24016;52.102;11.584;2022-08-19T11:43:35;22.00;99.90
38209;DHT22;24016;52.102;11.584;2022-08-19T11:46:05;22.10;99.90
38209;DHT22;24016;52.102;11.584;2022-08-19T11:48:38;22.40;99.90
38209;DHT22;24016;52.102;11.584;2022-08-19T11:51:07;22.10;99.90
38209;DHT22;24016;52.102;11.584;2022-08-19T11:53:34;21.80;99.90
38209;DHT22;24016;52.102;11.584;2022-08-19T11:56:00;21.80;99.90
38209;DHT22;24016;52.102;11.584;2022-08-19T11:58:25;21.70;99.90
38209;DHT22;24016;52.102;11.584;2022-08-19T12:00:52;21.80;99.90
38209;DHT22;24016;52.102;11.584;2022-08-19T12:03:18;22.00;99.90
38209;DHT22;24016;52.102;11.584;2022-08-19T12:05:45;22.00;99.90
38209;DHT22;24016;52.102;11.584;2022-08-19T12:08:18;22.10;99.90
38209;DHT22;24016;52.102;11.584;2022-08-19T12:10:45;22.30;99.90
38209;DHT22;24016;52.102;11.584;2022-08-19T12:13:12;22.20;99.90
38209;DHT22;24016;52.102;11.584;2022-08-19T12:15:41;22.50;99.90
38209;DHT22;24016;52.102;11.584;2022-08-19T12:18:08;22.70;99.90
38209;DHT22;24016;52.102;11.584;2022-08-19T12:20:39;22.50;99.90
38209;DHT22;24016;52.102;11.584;2022-08-19T12:23:06;23.10;99.90
38209;DHT22;24016;52.102;11.584;2022-08-19T12:25:33;23.60;99.90
38209;DHT22;24016;52.102;11.584;2022-08-19T12:27:59;23.70;99.90
38209;DHT22;24016;52.102;11.584;2022-08-19T12:30:28;23.90;99.90
38209;DHT22;24016;52.102;11.584;2022-08-19T12:32:54;23.30;99.90
38209;DHT22;24016;52.102;11.584;2022-08-19T12:35:20;23.50;99.90
38209;DHT22;24016;52.102;11.584;2022-08-19T12:37:47;23.00;99.90
38209;DHT22;24016;52.102;11.584;2022-08-19T12:40:14;22.70;99.90
38209;DHT22;24016;52.102;11.584;2022-08-19T12:42:41;22.70;99.90
38209;DHT22;24016;52.102;11.584;2022-08-19T12:45:11;22.70;99.90
38209;DHT22;24016;52.102;11.584;2022-08-19T12:47:38;22.80;99.90
38209;DHT22;24016;52.102;11.584;2022-08-19T12:50:05;22.80;99.90
38209;DHT22;24016;52.102;11.584;2022-08-19T12:52:32;22.80;99.90
38209;DHT22;24016;52.102;11.584;2022-08-19T12:54:58;22.80;99.90
38209;DHT22;24016;52.102;11.584;2022-08-19T12:57:25;22.60;99.90
38209;DHT22;24016;52.102;11.584;2022-08-19T12:59:54;22.20;99.90
38209;DHT22;24016;52.102;11.584;2022-08-19T13:02:20;22.20;99.90
38209;DHT22;24016;52.102;11.584;2022-08-19T13:04:47;22.40;99.90
38209;DHT22;24016;52.102;11.584;2022-08-19T13:07:12;22.70;99.90
38209;DHT22;24016;52.102;11.584;2022-08-19T13:09:38;22.70;99.90
38209;DHT22;24016;52.102;11.584;2022-08-19T13:12:06;22.70;99.90
38209;DHT22;24016;52.102;11.584;2022-08-19T13:14:38;22.70;99.90
38209;DHT22;24016;52.102;11.584;2022-08-19T13:17:03;22.80;99.90
38209;DHT22;24016;52.102;11.584;2022-08-19T13:19:29;23.10;99.90
38209;DHT22;24016;52.102;11.584;2022-08-19T13:21:56;23.10;99.90
38209;DHT22;24016;52.102;11.584;2022-08-19T13:24:21;22.80;99.90
38209;DHT22;24016;52.102;11.584;2022-08-19T13:26:47;22.50;99.90
38209;DHT22;24016;52.102;11.584;2022-08-19T13:29:13;22.80;99.90
38209;DHT22;24016;52.102;11.584;2022-08-19T13:31:58;22.70;99.90
38209;DHT22;24016;52.102;11.584;2022-08-19T13:34:42;23.10;99.90
38209;DHT22;24016;52.102;11.584;2022-08-19T13:37:08;23.30;99.90
38209;DHT22;24016;52.102;11.584;2022-08-19T13:39:35;23.50;99.90
38209;DHT22;24016;52.102;11.584;2022-08-19T13:42:02;23.30;99.90
38209;DHT22;24016;52.102;11.584;2022-08-19T13:44:29;23.30;99.90
38209;DHT22;24016;52.102;11.584;2022-08-19T13:47:02;23.70;99.90
38209;DHT22;24016;52.102;11.584;2022-08-19T13:49:33;24.20;99.90
38209;DHT22;24016;52.102;11.584;2022-08-19T13:51:59;24.20;99.90
38209;DHT22;24016;52.102;11.584;2022-08-19T13:54:25;24.00;99.90
38209;DHT22;24016;52.102;11.584;2022-08-19T13:56:52;23.90;99.90
38209;DHT22;24016;52.102;11.584;2022-08-19T13:59:17;23.90;99.90
38209;DHT22;24016;52.102;11.584;2022-08-19T14:01:43;23.80;99.90
38209;DHT22;24016;52.102;11.584;2022-08-19T14:04:09;23.80;99.90
38209;DHT22;24016;52.102;11.584;2022-08-19T14:06:35;24.00;99.90
38209;DHT22;24016;52.102;11.584;2022-08-19T14:09:00;23.90;99.90
38209;DHT22;24016;52.102;11.584;2022-08-19T14:11:28;24.30;99.90
38209;DHT22;24016;52.102;11.584;2022-08-19T14:13:54;24.10;99.90
38209;DHT22;24016;52.102;11.584;2022-08-19T14:16:20;23.70;99.90
38209;DHT22;24016;52.102;11.584;2022-08-19T14:18:47;23.50;99.90
38209;DHT22;24016;52.102;11.584;2022-08-19T14:21:23;23.30;99.90
38209;DHT22;24016;52.102;11.584;2022-08-19T14:23:51;23.30;99.90
38209;DHT22;24016;52.102;11.584;2022-08-19T14:26:22;23.10;99.90
38209;DHT22;24016;52.102;11.584;2022-08-19T14:28:48;23.30;99.90
38209;DHT22;24016;52.102;11.584;2022-08-19T14:31:16;23.20;99.90
38209;DHT22;24016;52.102;11.584;2022-08-19T14:33:45;22.90;99.90
38209;DHT22;24016;52.102;11.584;2022-08-19T14:36:11;22.80;99.90
38209;DHT22;24016;52.102;11.584;2022-08-19T14:38:37;22.90;99.90
38209;DHT22;24016;52.102;11.584;2022-08-19T14:43:37;23.10;99.90
38209;DHT22;24016;52.102;11.584;2022-08-19T14:46:03;23.10;99.90
38209;DHT22;24016;52.102;11.584;2022-08-19T14:48:29;23.20;99.90
38209;DHT22;24016;52.102;11.584;2022-08-19T14:50:55;23.20;99.90
38209;DHT22;24016;52.102;11.584;2022-08-19T14:53:20;23.10;99.90
38209;DHT22;24016;52.102;11.584;2022-08-19T14:55:47;23.00;99.90
38209;DHT22;24016;52.102;11.584;2022-08-19T14:58:13;22.90;99.90
38209;DHT22;24016;52.102;11.584;2022-08-19T15:00:40;22.80;99.90
38209;DHT22;24016;52.102;11.584;2022-08-19T15:03:06;22.70;99.90
38209;DHT22;24016;52.102;11.584;2022-08-19T15:05:31;22.40;99.90
38209;DHT22;24016;52.102;11.584;2022-08-19T15:07:57;22.30;99.90
38209;DHT22;24016;52.102;11.584;2022-08-19T15:10:23;22.30;99.90
38209;DHT22;24016;52.102;11.584;2022-08-19T15:12:50;22.20;99.90
38209;DHT22;24016;52.102;11.584;2022-08-19T15:15:16;22.20;99.90
38209;DHT22;24016;52.102;11.584;2022-08-19T15:17:48;22.10;99.90
38209;DHT22;24016;52.102;11.584;2022-08-19T15:20:18;22.00;99.90
38209;DHT22;24016;52.102;11.584;2022-08-19T15:22:44;22.00;99.90
38209;DHT22;24016;52.102;11.584;2022-08-19T15:25:16;21.90;99.90
38209;DHT22;24016;52.102;11.584;2022-08-19T15:27:44;21.80;99.90